Startpagina
METAR-TAF:

METAR-TAF

Vliegvelden :

Szeged, Hongarije

breedte: 46-15N, lengte: 020-06E, hoogte: 82 m

Actueel weer

Dit bericht is 46 minuten geleden gemaakt, om 10:45 UTC
Wind 10 kt uit het noordnoordwesten
Temperatuur 15°C
Vochtigheid 59%
Druk 1029 hPa
Zicht 10 km of meer
geen wolken onder 1500 m en geen cumulonimbus

METAR: LHUD 141045Z 34010KT CAVOK 15/07 Q1029

Tijdstip: 12:31 (11:31 UTC)


TAF: ontbreekt

Waarnemingen en weersverwachtingen van meer dan 4000 vliegvelden (METAR en TAF).

De beschikbare stations zijn de gele en rode punten op de kaart.

Ga met uw muis naar het station om de naam te zien.

Klik dan om waarnemingen en weersverwachtingen te zien.

kaart wijzigen: klik op de groene knoppen met een zwart kruis om in te zoomen, op de groene knop met een streepje om uit te zoomen of op de groene pijlen voor aangrenzende kaarten.


METAR-TAF: